createdAt,value
2023-03-13T00:03:57.026Z,5.85
2023-03-13T00:09:01.579Z,6.68
2023-03-13T00:14:08.013Z,5.25
2023-03-13T00:19:11.841Z,5.18
2023-03-13T00:24:15.641Z,5.53
2023-03-13T00:29:20.716Z,5.50
2023-03-13T00:34:26.533Z,5.18
2023-03-13T00:39:30.210Z,5.45
2023-03-13T00:44:35.257Z,5.30
2023-03-13T00:49:39.005Z,4.68
2023-03-13T00:54:43.113Z,5.82
2023-03-13T00:59:48.168Z,5.30
2023-03-13T01:04:53.953Z,7.18
2023-03-13T01:09:59.773Z,6.00
2023-03-13T01:15:05.449Z,6.78
2023-03-13T01:20:11.737Z,6.57
2023-03-13T01:25:15.466Z,6.47
2023-03-13T01:30:20.857Z,6.95
2023-03-13T01:35:25.935Z,7.53
2023-03-13T01:40:29.659Z,6.62
2023-03-13T01:46:03.898Z,7.53
2023-03-13T01:51:12.656Z,7.57
2023-03-13T01:56:21.648Z,7.90
2023-03-13T02:01:27.779Z,8.65
2023-03-13T02:06:34.167Z,9.07
2023-03-13T02:11:48.504Z,10.68
2023-03-13T02:16:54.628Z,11.55
2023-03-13T02:22:08.335Z,13.40
2023-03-13T02:27:13.601Z,12.40
2023-03-13T02:32:18.381Z,12.68
2023-03-13T02:37:22.980Z,12.20
2023-03-13T02:42:30.360Z,11.30
2023-03-13T02:47:34.242Z,11.48
2023-03-13T02:52:41.977Z,8.82
2023-03-13T02:57:49.373Z,8.73
2023-03-13T03:02:54.041Z,9.27
2023-03-13T03:07:57.825Z,7.75
2023-03-13T03:13:04.764Z,7.90
2023-03-13T03:18:08.715Z,8.20
2023-03-13T03:23:12.555Z,7.53
2023-03-13T03:28:17.840Z,9.10
2023-03-13T03:33:21.633Z,8.32
2023-03-13T03:38:25.693Z,7.97
2023-03-13T03:43:30.918Z,8.88
2023-03-13T03:48:35.574Z,7.20
2023-03-13T03:53:41.678Z,8.02
2023-03-13T03:58:47.109Z,8.90
2023-03-13T04:03:51.221Z,7.75
2023-03-13T04:08:55.495Z,8.60
2023-03-13T04:14:01.260Z,7.20
2023-03-13T04:19:05.941Z,8.25
2023-03-13T04:24:10.371Z,7.93
2023-03-13T04:29:16.607Z,7.25
2023-03-13T04:34:20.968Z,6.28
2023-03-13T04:39:25.824Z,6.75
2023-03-13T04:44:31.582Z,5.28
2023-03-13T04:49:36.004Z,5.68
2023-03-13T04:54:40.823Z,6.15
2023-03-13T04:59:46.374Z,5.47
2023-03-13T05:04:52.209Z,5.50
2023-03-13T05:09:57.660Z,5.12
2023-03-13T05:15:08.864Z,5.57
2023-03-13T05:20:13.549Z,4.62
2023-03-13T05:25:17.716Z,4.22
2023-03-13T05:30:23.338Z,4.05
2023-03-13T05:35:27.729Z,3.60
2023-03-13T05:40:31.888Z,4.15
2023-03-13T05:45:37.564Z,4.15
2023-03-13T05:50:41.859Z,4.15
2023-03-13T05:55:46.296Z,3.92
2023-03-13T06:00:52.576Z,3.40
2023-03-13T06:06:01.518Z,4.43
2023-03-13T06:11:06.444Z,4.12
2023-03-13T06:16:12.030Z,3.40
2023-03-13T06:21:16.159Z,3.10
2023-03-13T06:26:19.938Z,3.83
2023-03-13T06:31:25.054Z,4.00
2023-03-13T06:36:28.971Z,4.40
2023-03-13T06:41:33.360Z,3.65
2023-03-13T06:46:38.457Z,4.62
2023-03-13T06:51:42.151Z,3.30
2023-03-13T06:56:45.910Z,4.85
2023-03-13T07:01:50.965Z,3.30
2023-03-13T07:06:54.661Z,3.45
2023-03-13T07:11:58.828Z,3.53
2023-03-13T07:17:03.894Z,2.80
2023-03-13T07:22:07.653Z,3.35
2023-03-13T07:27:11.559Z,3.47
2023-03-13T07:32:17.029Z,2.97
2023-03-13T07:37:20.781Z,2.70
2023-03-13T07:42:24.559Z,3.03
2023-03-13T07:47:30.436Z,2.97
2023-03-13T07:52:34.128Z,3.60
2023-03-13T07:57:38.065Z,3.50
2023-03-13T08:02:43.182Z,4.12
2023-03-13T08:07:46.969Z,3.30
2023-03-13T08:12:50.939Z,3.22
2023-03-13T08:17:56.663Z,10.15
2023-03-13T08:23:00.534Z,7.32
2023-03-13T08:28:04.588Z,4.78
2023-03-13T08:33:09.629Z,3.17
2023-03-13T08:38:13.362Z,3.12
2023-03-13T08:43:17.050Z,2.95
2023-03-13T08:48:22.125Z,2.90
2023-03-13T08:53:26.286Z,3.35
2023-03-13T08:58:30.075Z,2.85
2023-03-13T09:03:35.763Z,2.65
2023-03-13T09:08:40.618Z,2.12
2023-03-13T09:13:46.492Z,2.15
2023-03-13T09:18:52.891Z,2.00
2023-03-13T09:23:57.044Z,2.22
2023-03-13T09:29:01.150Z,1.98
2023-03-13T09:34:06.195Z,2.20
2023-03-13T09:39:09.943Z,2.12
2023-03-13T09:44:19.572Z,2.42
2023-03-13T09:49:32.393Z,1.65
2023-03-13T09:54:40.653Z,2.28
2023-03-13T10:04:58.121Z,2.00
2023-03-13T10:10:03.040Z,2.00
2023-03-13T10:15:25.238Z,1.70
2023-03-13T10:20:35.216Z,1.60
2023-03-13T10:25:40.545Z,1.87
2023-03-13T10:30:48.708Z,1.73
2023-03-13T10:36:10.365Z,1.27
2023-03-13T10:41:26.753Z,2.12
2023-03-13T10:46:32.438Z,1.12
2023-03-13T10:51:40.167Z,1.60
2023-03-13T10:56:44.003Z,1.30
2023-03-13T11:01:49.075Z,1.15
2023-03-13T11:07:02.707Z,1.10
2023-03-13T11:12:21.285Z,1.40
2023-03-13T11:17:35.471Z,1.60
2023-03-13T11:22:52.036Z,1.67
2023-03-13T11:28:16.390Z,1.35
2023-03-13T11:33:30.231Z,2.25
2023-03-13T11:38:39.159Z,1.30
2023-03-13T11:44:03.489Z,1.62
2023-03-13T11:49:19.548Z,1.17
2023-03-13T11:54:41.691Z,1.00
2023-03-13T11:59:55.657Z,1.23
2023-03-13T12:05:02.781Z,1.25
2023-03-13T12:10:13.657Z,1.40
2023-03-13T12:15:23.072Z,1.02
2023-03-13T12:20:30.061Z,1.10
2023-03-13T12:25:44.429Z,1.33
2023-03-13T12:30:53.825Z,1.08
2023-03-13T12:36:07.724Z,1.33
2023-03-13T12:41:21.196Z,1.30
2023-03-13T12:46:42.179Z,1.37
2023-03-13T12:52:02.595Z,1.33
2023-03-13T12:57:28.554Z,1.25
2023-03-13T13:02:33.212Z,1.08
2023-03-13T13:07:40.340Z,1.15
2023-03-13T13:12:47.352Z,1.43
2023-03-13T13:18:15.570Z,1.20
2023-03-13T13:23:39.165Z,1.05
2023-03-13T13:28:44.877Z,1.15
2023-03-13T13:33:48.585Z,1.20
2023-03-13T13:38:52.992Z,1.15
2023-03-13T13:44:24.391Z,1.27
2023-03-13T13:49:33.665Z,1.40
2023-03-13T13:54:56.415Z,1.55
2023-03-13T14:00:17.053Z,1.60
2023-03-13T14:05:23.920Z,1.98
2023-03-13T14:10:36.450Z,1.67
2023-03-13T14:15:45.102Z,1.17
2023-03-13T14:20:57.824Z,1.90
2023-03-13T14:26:11.323Z,1.60
2023-03-13T14:31:29.375Z,1.37
2023-03-13T14:36:47.097Z,1.58
2023-03-13T14:41:51.853Z,2.00
2023-03-13T14:47:00.417Z,1.80
2023-03-13T14:52:08.762Z,1.65
2023-03-13T14:57:21.235Z,2.15
2023-03-13T15:02:29.616Z,1.62
2023-03-13T15:07:38.422Z,1.95
2023-03-13T15:12:45.250Z,1.48
2023-03-13T15:17:50.409Z,2.00
2023-03-13T15:22:54.164Z,2.30
2023-03-13T15:27:58.600Z,1.50
2023-03-13T15:33:03.745Z,1.50
2023-03-13T15:38:12.052Z,1.35
2023-03-13T15:43:16.925Z,1.37
2023-03-13T15:48:24.097Z,1.95
2023-03-13T15:53:30.552Z,1.80
2023-03-13T15:58:34.412Z,2.08
2023-03-13T16:03:39.944Z,1.52
2023-03-13T16:08:44.135Z,1.52
2023-03-13T16:13:48.045Z,1.30
2023-03-13T16:18:53.961Z,1.50
2023-03-13T16:23:57.974Z,1.83
2023-03-13T16:29:01.771Z,1.67
2023-03-13T16:34:08.068Z,1.60
2023-03-13T16:39:15.785Z,1.95
2023-03-13T16:44:19.542Z,1.75
2023-03-13T16:49:24.609Z,2.08
2023-03-13T16:54:28.349Z,1.70
2023-03-13T16:59:32.083Z,2.10
2023-03-13T17:04:37.412Z,1.85
2023-03-13T17:09:41.089Z,1.73
2023-03-13T17:14:44.870Z,1.58
2023-03-13T17:19:50.052Z,2.22
2023-03-13T17:24:53.762Z,2.25
2023-03-13T17:29:57.792Z,2.40
2023-03-13T17:35:03.086Z,2.20
2023-03-13T17:40:15.662Z,1.90
2023-03-13T17:45:20.419Z,2.00
2023-03-13T17:50:27.953Z,2.20
2023-03-13T17:55:31.889Z,1.93
2023-03-13T18:00:35.796Z,2.67
2023-03-13T18:05:41.893Z,1.85
2023-03-13T18:10:46.520Z,2.60
2023-03-13T18:15:50.304Z,3.08
2023-03-13T18:20:55.642Z,2.45
2023-03-13T18:25:59.517Z,2.30
2023-03-13T18:31:03.232Z,2.75
2023-03-13T18:36:16.686Z,2.12
2023-03-13T18:41:21.279Z,2.35
2023-03-13T18:46:27.890Z,2.80
2023-03-13T18:51:32.963Z,3.05
2023-03-13T18:56:37.140Z,2.97
2023-03-13T19:01:40.911Z,3.95
2023-03-13T19:06:46.933Z,3.65
2023-03-13T19:11:50.760Z,3.42
2023-03-13T19:16:56.421Z,3.92
2023-03-13T19:22:02.108Z,5.22
2023-03-13T19:27:06.683Z,4.72
2023-03-13T19:32:14.370Z,3.97
2023-03-13T19:37:19.848Z,5.68
2023-03-13T19:42:23.542Z,4.28
2023-03-13T19:47:27.227Z,4.87
2023-03-13T19:52:32.288Z,5.00
2023-03-13T19:57:37.083Z,4.32
2023-03-13T20:02:41.539Z,5.57
2023-03-13T20:07:46.900Z,5.35
2023-03-13T20:12:50.598Z,4.70
2023-03-13T20:17:54.351Z,4.60
2023-03-13T20:22:59.438Z,4.72
2023-03-13T20:28:03.170Z,5.07
2023-03-13T20:33:07.191Z,5.12
2023-03-13T20:38:12.329Z,5.05
2023-03-13T20:43:16.109Z,5.45
2023-03-13T20:48:20.803Z,5.65
2023-03-13T20:53:26.565Z,5.80
2023-03-13T20:58:30.548Z,5.93
2023-03-13T21:03:36.112Z,5.68
2023-03-13T21:08:41.483Z,5.47
2023-03-13T21:13:45.709Z,5.35
2023-03-13T21:18:49.518Z,5.28
2023-03-13T21:23:54.742Z,5.40
2023-03-13T21:28:58.416Z,6.20
2023-03-13T21:34:02.252Z,5.22
2023-03-13T21:39:08.520Z,4.80
2023-03-13T21:44:13.074Z,4.37
2023-03-13T21:49:16.877Z,3.83
2023-03-13T21:54:22.032Z,3.87
2023-03-13T21:59:27.267Z,4.25
2023-03-13T22:04:31.036Z,3.17
2023-03-13T22:09:36.197Z,3.35
2023-03-13T22:14:39.870Z,2.35
2023-03-13T22:19:43.728Z,3.10
2023-03-13T22:24:48.952Z,3.12
2023-03-13T22:29:52.826Z,3.65
2023-03-13T22:34:56.615Z,3.03
2023-03-13T22:40:01.683Z,2.72
2023-03-13T22:45:06.524Z,2.92
2023-03-13T22:50:11.734Z,3.20
2023-03-13T22:55:16.859Z,2.42
2023-03-13T23:00:21.696Z,2.35
2023-03-13T23:05:25.468Z,2.33
2023-03-13T23:10:30.538Z,2.33
2023-03-13T23:15:54.734Z,2.00
2023-03-13T23:20:58.030Z,1.50
2023-03-13T23:26:04.234Z,1.90
2023-03-13T23:31:13.088Z,1.50
2023-03-13T23:36:19.145Z,1.55
2023-03-13T23:41:24.289Z,1.52
2023-03-13T23:46:28.026Z,1.77
2023-03-13T23:51:31.894Z,1.65
2023-03-13T23:56:36.955Z,1.60
